sensor_id;sensor_type;location;lat;lon;timestamp;temperature;humidity
19580;DHT22;9936;51.040;13.918;2023-03-01T00:01:30;-1.50;99.90
19580;DHT22;9936;51.040;13.918;2023-03-01T00:05:16;-1.50;99.90
19580;DHT22;9936;51.040;13.918;2023-03-01T00:09:01;-1.50;99.90
19580;DHT22;9936;51.040;13.918;2023-03-01T00:12:47;-1.60;99.90
19580;DHT22;9936;51.040;13.918;2023-03-01T00:16:41;-1.60;99.90
19580;DHT22;9936;51.040;13.918;2023-03-01T00:20:27;-1.60;99.90
19580;DHT22;9936;51.040;13.918;2023-03-01T00:24:13;-1.60;99.90
19580;DHT22;9936;51.040;13.918;2023-03-01T00:27:58;-1.70;99.90
19580;DHT22;9936;51.040;13.918;2023-03-01T00:31:44;-1.70;99.90
19580;DHT22;9936;51.040;13.918;2023-03-01T00:35:31;-1.70;99.90
19580;DHT22;9936;51.040;13.918;2023-03-01T00:39:17;-1.70;99.90
19580;DHT22;9936;51.040;13.918;2023-03-01T00:43:03;-1.80;99.90
19580;DHT22;9936;51.040;13.918;2023-03-01T00:46:49;-1.70;99.90
19580;DHT22;9936;51.040;13.918;2023-03-01T00:50:35;-1.80;99.90
19580;DHT22;9936;51.040;13.918;2023-03-01T00:54:20;-1.80;99.90
19580;DHT22;9936;51.040;13.918;2023-03-01T00:58:06;-1.80;99.90
19580;DHT22;9936;51.040;13.918;2023-03-01T01:01:51;-1.90;99.90
19580;DHT22;9936;51.040;13.918;2023-03-01T01:05:37;-1.90;99.90
19580;DHT22;9936;51.040;13.918;2023-03-01T01:09:23;-1.90;99.90
19580;DHT22;9936;51.040;13.918;2023-03-01T01:13:08;-1.90;99.90
19580;DHT22;9936;51.040;13.918;2023-03-01T01:16:54;-1.90;99.90
19580;DHT22;9936;51.040;13.918;2023-03-01T01:20:40;-2.00;99.90
19580;DHT22;9936;51.040;13.918;2023-03-01T01:24:26;-2.00;99.90
19580;DHT22;9936;51.040;13.918;2023-03-01T01:28:12;-2.00;99.90
19580;DHT22;9936;51.040;13.918;2023-03-01T01:31:57;-2.00;99.90
19580;DHT22;9936;51.040;13.918;2023-03-01T01:35:45;-2.00;99.90
19580;DHT22;9936;51.040;13.918;2023-03-01T01:39:30;-2.10;99.90
19580;DHT22;9936;51.040;13.918;2023-03-01T01:43:31;-2.10;99.90
19580;DHT22;9936;51.040;13.918;2023-03-01T01:47:20;-2.10;99.90
19580;DHT22;9936;51.040;13.918;2023-03-01T01:51:18;-2.20;99.90
19580;DHT22;9936;51.040;13.918;2023-03-01T01:55:20;-2.20;99.90
19580;DHT22;9936;51.040;13.918;2023-03-01T01:59:07;-2.20;99.90
19580;DHT22;9936;51.040;13.918;2023-03-01T02:02:59;-2.20;99.90
19580;DHT22;9936;51.040;13.918;2023-03-01T02:06:51;-2.20;99.90
19580;DHT22;9936;51.040;13.918;2023-03-01T02:10:40;-2.30;99.90
19580;DHT22;9936;51.040;13.918;2023-03-01T02:14:26;-2.30;99.90
19580;DHT22;9936;51.040;13.918;2023-03-01T02:18:16;-2.30;99.90
19580;DHT22;9936;51.040;13.918;2023-03-01T02:22:16;-2.30;99.90
19580;DHT22;9936;51.040;13.918;2023-03-01T02:30:11;-2.40;99.90
19580;DHT22;9936;51.040;13.918;2023-03-01T02:33:57;-2.40;99.90
19580;DHT22;9936;51.040;13.918;2023-03-01T02:37:44;-2.40;99.90
19580;DHT22;9936;51.040;13.918;2023-03-01T02:41:34;-2.50;99.90
19580;DHT22;9936;51.040;13.918;2023-03-01T02:45:21;-2.40;99.90
19580;DHT22;9936;51.040;13.918;2023-03-01T02:49:19;-2.50;99.90
19580;DHT22;9936;51.040;13.918;2023-03-01T02:53:10;-2.50;99.90
19580;DHT22;9936;51.040;13.918;2023-03-01T02:56:58;-2.60;99.90
19580;DHT22;9936;51.040;13.918;2023-03-01T03:00:44;-2.60;99.90
19580;DHT22;9936;51.040;13.918;2023-03-01T03:04:32;-2.60;99.90
19580;DHT22;9936;51.040;13.918;2023-03-01T03:08:17;-2.70;99.90
19580;DHT22;9936;51.040;13.918;2023-03-01T03:12:09;-2.70;99.90
19580;DHT22;9936;51.040;13.918;2023-03-01T03:15:55;-2.70;99.90
19580;DHT22;9936;51.040;13.918;2023-03-01T03:19:41;-2.70;99.90
19580;DHT22;9936;51.040;13.918;2023-03-01T03:23:30;-2.70;99.90
19580;DHT22;9936;51.040;13.918;2023-03-01T03:27:16;-2.80;99.90
19580;DHT22;9936;51.040;13.918;2023-03-01T03:31:02;-2.80;99.90
19580;DHT22;9936;51.040;13.918;2023-03-01T03:34:50;-2.80;99.90
19580;DHT22;9936;51.040;13.918;2023-03-01T03:38:36;-2.80;99.90
19580;DHT22;9936;51.040;13.918;2023-03-01T03:42:21;-2.90;99.90
19580;DHT22;9936;51.040;13.918;2023-03-01T03:46:08;-2.90;99.90
19580;DHT22;9936;51.040;13.918;2023-03-01T03:49:53;-2.90;99.90
19580;DHT22;9936;51.040;13.918;2023-03-01T03:53:39;-2.90;99.90
19580;DHT22;9936;51.040;13.918;2023-03-01T03:57:25;-3.00;99.90
19580;DHT22;9936;51.040;13.918;2023-03-01T04:01:11;-3.00;99.90
19580;DHT22;9936;51.040;13.918;2023-03-01T04:04:56;-3.00;99.90
19580;DHT22;9936;51.040;13.918;2023-03-01T04:08:42;-3.10;99.90
19580;DHT22;9936;51.040;13.918;2023-03-01T04:12:27;-3.10;99.90
19580;DHT22;9936;51.040;13.918;2023-03-01T04:16:13;-3.10;99.90
19580;DHT22;9936;51.040;13.918;2023-03-01T04:19:59;-3.10;99.90
19580;DHT22;9936;51.040;13.918;2023-03-01T04:23:44;-3.20;99.90
19580;DHT22;9936;51.040;13.918;2023-03-01T04:27:30;-3.20;99.90
19580;DHT22;9936;51.040;13.918;2023-03-01T04:31:17;-3.20;99.90
19580;DHT22;9936;51.040;13.918;2023-03-01T04:35:03;-3.20;99.90
19580;DHT22;9936;51.040;13.918;2023-03-01T04:38:50;-3.30;99.90
19580;DHT22;9936;51.040;13.918;2023-03-01T04:42:35;-3.30;99.90
19580;DHT22;9936;51.040;13.918;2023-03-01T04:46:21;-3.30;99.90
19580;DHT22;9936;51.040;13.918;2023-03-01T04:50:08;-3.30;99.90
19580;DHT22;9936;51.040;13.918;2023-03-01T04:53:54;-3.30;99.90
19580;DHT22;9936;51.040;13.918;2023-03-01T04:57:47;-3.40;99.90
19580;DHT22;9936;51.040;13.918;2023-03-01T05:01:33;-3.40;99.90
19580;DHT22;9936;51.040;13.918;2023-03-01T05:05:28;-3.40;99.90
19580;DHT22;9936;51.040;13.918;2023-03-01T05:09:26;-3.40;99.90
19580;DHT22;9936;51.040;13.918;2023-03-01T05:13:12;-3.40;99.90
19580;DHT22;9936;51.040;13.918;2023-03-01T05:17:06;-3.50;99.90
19580;DHT22;9936;51.040;13.918;2023-03-01T05:20:56;-3.50;99.90
19580;DHT22;9936;51.040;13.918;2023-03-01T05:24:46;-3.50;99.90
19580;DHT22;9936;51.040;13.918;2023-03-01T05:28:32;-3.50;99.90
19580;DHT22;9936;51.040;13.918;2023-03-01T05:32:18;-3.60;99.90
19580;DHT22;9936;51.040;13.918;2023-03-01T05:36:06;-3.50;99.90
19580;DHT22;9936;51.040;13.918;2023-03-01T05:39:52;-3.60;99.90
19580;DHT22;9936;51.040;13.918;2023-03-01T05:43:38;-3.60;99.90
19580;DHT22;9936;51.040;13.918;2023-03-01T05:47:24;-3.60;99.90
19580;DHT22;9936;51.040;13.918;2023-03-01T05:51:09;-3.70;99.90
19580;DHT22;9936;51.040;13.918;2023-03-01T05:54:55;-3.70;99.90
19580;DHT22;9936;51.040;13.918;2023-03-01T05:58:41;-3.70;99.90
19580;DHT22;9936;51.040;13.918;2023-03-01T06:02:26;-3.70;99.90
19580;DHT22;9936;51.040;13.918;2023-03-01T06:06:12;-3.70;99.90
19580;DHT22;9936;51.040;13.918;2023-03-01T06:09:58;-3.80;99.90
19580;DHT22;9936;51.040;13.918;2023-03-01T06:13:44;-3.80;99.90
19580;DHT22;9936;51.040;13.918;2023-03-01T06:17:33;-3.80;99.90
19580;DHT22;9936;51.040;13.918;2023-03-01T06:21:22;-3.80;99.90
19580;DHT22;9936;51.040;13.918;2023-03-01T06:25:08;-3.80;99.90
19580;DHT22;9936;51.040;13.918;2023-03-01T06:29:00;-3.80;99.90
19580;DHT22;9936;51.040;13.918;2023-03-01T06:32:45;-3.80;99.90
19580;DHT22;9936;51.040;13.918;2023-03-01T06:36:31;-3.80;99.90
19580;DHT22;9936;51.040;13.918;2023-03-01T06:40:16;-3.80;99.90
19580;DHT22;9936;51.040;13.918;2023-03-01T06:44:02;-3.80;99.90
19580;DHT22;9936;51.040;13.918;2023-03-01T06:47:48;-3.80;99.90
19580;DHT22;9936;51.040;13.918;2023-03-01T06:51:34;-3.80;99.90
19580;DHT22;9936;51.040;13.918;2023-03-01T06:55:20;-3.80;99.90
19580;DHT22;9936;51.040;13.918;2023-03-01T06:59:05;-3.70;99.90
19580;DHT22;9936;51.040;13.918;2023-03-01T07:02:51;-3.70;99.90
19580;DHT22;9936;51.040;13.918;2023-03-01T07:07:06;-3.70;99.90
19580;DHT22;9936;51.040;13.918;2023-03-01T07:10:56;-3.60;99.90
19580;DHT22;9936;51.040;13.918;2023-03-01T07:14:44;-3.50;99.90
19580;DHT22;9936;51.040;13.918;2023-03-01T07:18:29;-3.40;99.90
19580;DHT22;9936;51.040;13.918;2023-03-01T07:22:15;-3.30;99.90
19580;DHT22;9936;51.040;13.918;2023-03-01T07:26:01;-3.20;99.90
19580;DHT22;9936;51.040;13.918;2023-03-01T07:29:46;-3.10;99.90
19580;DHT22;9936;51.040;13.918;2023-03-01T07:33:32;-3.10;99.90
19580;DHT22;9936;51.040;13.918;2023-03-01T07:37:18;-3.10;99.90
19580;DHT22;9936;51.040;13.918;2023-03-01T07:41:04;-3.00;99.90
19580;DHT22;9936;51.040;13.918;2023-03-01T07:44:50;-3.00;99.90
19580;DHT22;9936;51.040;13.918;2023-03-01T07:48:36;-2.90;99.90
19580;DHT22;9936;51.040;13.918;2023-03-01T07:52:22;-2.90;99.90
19580;DHT22;9936;51.040;13.918;2023-03-01T07:56:10;-2.90;99.90
19580;DHT22;9936;51.040;13.918;2023-03-01T07:59:56;-2.80;99.90
19580;DHT22;9936;51.040;13.918;2023-03-01T08:03:53;-2.80;99.90
19580;DHT22;9936;51.040;13.918;2023-03-01T08:07:39;-2.70;99.90
19580;DHT22;9936;51.040;13.918;2023-03-01T08:11:25;-2.70;99.90
19580;DHT22;9936;51.040;13.918;2023-03-01T08:15:11;-2.70;99.90
19580;DHT22;9936;51.040;13.918;2023-03-01T08:18:57;-2.80;99.90
19580;DHT22;9936;51.040;13.918;2023-03-01T08:22:45;-2.80;99.90
19580;DHT22;9936;51.040;13.918;2023-03-01T08:26:32;-2.80;99.90
19580;DHT22;9936;51.040;13.918;2023-03-01T08:30:18;-2.80;99.90
19580;DHT22;9936;51.040;13.918;2023-03-01T08:38:35;-2.80;99.90
19580;DHT22;9936;51.040;13.918;2023-03-01T08:42:20;-2.70;99.90
19580;DHT22;9936;51.040;13.918;2023-03-01T08:46:06;-2.70;99.90
19580;DHT22;9936;51.040;13.918;2023-03-01T08:49:52;-2.70;99.90
19580;DHT22;9936;51.040;13.918;2023-03-01T08:53:38;-2.70;99.90
19580;DHT22;9936;51.040;13.918;2023-03-01T08:57:24;-2.60;99.90
19580;DHT22;9936;51.040;13.918;2023-03-01T09:01:11;-2.60;99.90
19580;DHT22;9936;51.040;13.918;2023-03-01T09:04:57;-2.40;99.90
19580;DHT22;9936;51.040;13.918;2023-03-01T09:08:45;-2.50;99.90
19580;DHT22;9936;51.040;13.918;2023-03-01T09:12:31;-2.40;99.90
19580;DHT22;9936;51.040;13.918;2023-03-01T09:16:18;-2.40;99.90
19580;DHT22;9936;51.040;13.918;2023-03-01T09:20:05;-2.30;99.90
19580;DHT22;9936;51.040;13.918;2023-03-01T09:23:51;-2.20;99.90
19580;DHT22;9936;51.040;13.918;2023-03-01T09:27:36;-2.20;99.90
19580;DHT22;9936;51.040;13.918;2023-03-01T09:31:23;-2.10;99.90
19580;DHT22;9936;51.040;13.918;2023-03-01T09:35:09;-2.00;99.90
19580;DHT22;9936;51.040;13.918;2023-03-01T09:38:55;-1.90;99.90
19580;DHT22;9936;51.040;13.918;2023-03-01T09:43:02;-1.80;99.90
19580;DHT22;9936;51.040;13.918;2023-03-01T09:46:52;-1.70;99.90
19580;DHT22;9936;51.040;13.918;2023-03-01T09:50:40;-1.50;99.90
19580;DHT22;9936;51.040;13.918;2023-03-01T09:54:27;-1.30;99.90
19580;DHT22;9936;51.040;13.918;2023-03-01T09:58:50;-1.20;99.90
19580;DHT22;9936;51.040;13.918;2023-03-01T10:02:51;-1.10;99.90
19580;DHT22;9936;51.040;13.918;2023-03-01T10:06:41;-1.10;99.90
19580;DHT22;9936;51.040;13.918;2023-03-01T10:10:36;-0.90;99.90
19580;DHT22;9936;51.040;13.918;2023-03-01T10:18:19;-0.80;99.90
19580;DHT22;9936;51.040;13.918;2023-03-01T10:30:07;-0.60;99.90
19580;DHT22;9936;51.040;13.918;2023-03-01T10:38:13;-0.40;99.90
19580;DHT22;9936;51.040;13.918;2023-03-01T10:42:04;-0.30;99.90
19580;DHT22;9936;51.040;13.918;2023-03-01T10:45:54;-0.20;99.90
19580;DHT22;9936;51.040;13.918;2023-03-01T10:49:52;-0.10;99.90
19580;DHT22;9936;51.040;13.918;2023-03-01T10:53:43;0.00;99.90
19580;DHT22;9936;51.040;13.918;2023-03-01T10:57:38;0.00;99.90
19580;DHT22;9936;51.040;13.918;2023-03-01T11:01:32;0.10;99.90
19580;DHT22;9936;51.040;13.918;2023-03-01T11:05:24;0.20;99.90
19580;DHT22;9936;51.040;13.918;2023-03-01T11:09:23;0.40;99.90
19580;DHT22;9936;51.040;13.918;2023-03-01T11:13:17;0.50;99.90
19580;DHT22;9936;51.040;13.918;2023-03-01T11:21:07;0.60;99.90
19580;DHT22;9936;51.040;13.918;2023-03-01T11:24:54;0.70;99.90
19580;DHT22;9936;51.040;13.918;2023-03-01T11:28:42;0.70;99.90
19580;DHT22;9936;51.040;13.918;2023-03-01T11:32:38;0.70;99.90
19580;DHT22;9936;51.040;13.918;2023-03-01T11:36:32;0.90;99.90
19580;DHT22;9936;51.040;13.918;2023-03-01T11:40:35;1.00;99.90
19580;DHT22;9936;51.040;13.918;2023-03-01T11:44:28;1.20;99.90
19580;DHT22;9936;51.040;13.918;2023-03-01T11:56:52;1.50;99.90
19580;DHT22;9936;51.040;13.918;2023-03-01T12:01:17;1.60;99.90
19580;DHT22;9936;51.040;13.918;2023-03-01T12:09:55;1.80;99.90
19580;DHT22;9936;51.040;13.918;2023-03-01T12:26:02;1.80;99.90
19580;DHT22;9936;51.040;13.918;2023-03-01T12:46:15;1.80;99.90
19580;DHT22;9936;51.040;13.918;2023-03-01T12:50:55;1.90;99.90
19580;DHT22;9936;51.040;13.918;2023-03-01T12:54:28;2.00;99.90
19580;DHT22;9936;51.040;13.918;2023-03-01T13:02:13;2.20;99.90
19580;DHT22;9936;51.040;13.918;2023-03-01T13:18:28;2.50;99.90
19580;DHT22;9936;51.040;13.918;2023-03-01T13:22:30;2.50;99.90
19580;DHT22;9936;51.040;13.918;2023-03-01T13:26:18;2.60;99.90
19580;DHT22;9936;51.040;13.918;2023-03-01T13:30:04;2.70;99.90
19580;DHT22;9936;51.040;13.918;2023-03-01T13:33:52;2.80;99.90
19580;DHT22;9936;51.040;13.918;2023-03-01T13:37:38;2.90;99.90
19580;DHT22;9936;51.040;13.918;2023-03-01T13:45:42;2.90;99.90
19580;DHT22;9936;51.040;13.918;2023-03-01T13:49:32;2.80;99.90
19580;DHT22;9936;51.040;13.918;2023-03-01T13:53:24;2.90;99.90
19580;DHT22;9936;51.040;13.918;2023-03-01T13:57:20;2.90;99.90
19580;DHT22;9936;51.040;13.918;2023-03-01T14:01:27;3.00;99.90
19580;DHT22;9936;51.040;13.918;2023-03-01T14:05:13;3.00;99.90
19580;DHT22;9936;51.040;13.918;2023-03-01T14:09:09;3.10;99.90
19580;DHT22;9936;51.040;13.918;2023-03-01T14:13:29;3.00;99.80
19580;DHT22;9936;51.040;13.918;2023-03-01T14:21:29;3.10;99.90
19580;DHT22;9936;51.040;13.918;2023-03-01T14:25:28;3.10;99.90
19580;DHT22;9936;51.040;13.918;2023-03-01T14:41:17;3.30;99.90
19580;DHT22;9936;51.040;13.918;2023-03-01T14:45:04;3.30;99.90
19580;DHT22;9936;51.040;13.918;2023-03-01T14:48:54;3.40;99.90
19580;DHT22;9936;51.040;13.918;2023-03-01T14:52:42;3.40;99.90
19580;DHT22;9936;51.040;13.918;2023-03-01T14:56:43;3.50;99.50
19580;DHT22;9936;51.040;13.918;2023-03-01T15:00:32;3.50;99.90
19580;DHT22;9936;51.040;13.918;2023-03-01T15:04:19;3.50;99.90
19580;DHT22;9936;51.040;13.918;2023-03-01T15:08:08;3.50;99.90
19580;DHT22;9936;51.040;13.918;2023-03-01T15:12:40;3.50;99.50
19580;DHT22;9936;51.040;13.918;2023-03-01T15:16:29;3.50;99.70
19580;DHT22;9936;51.040;13.918;2023-03-01T15:20:18;3.50;99.60
19580;DHT22;9936;51.040;13.918;2023-03-01T15:28:04;3.50;99.90
19580;DHT22;9936;51.040;13.918;2023-03-01T15:35:46;3.50;99.90
19580;DHT22;9936;51.040;13.918;2023-03-01T15:39:41;3.50;99.90
19580;DHT22;9936;51.040;13.918;2023-03-01T15:43:45;3.50;99.40
19580;DHT22;9936;51.040;13.918;2023-03-01T15:47:31;3.40;99.90
19580;DHT22;9936;51.040;13.918;2023-03-01T15:51:18;3.40;99.90
19580;DHT22;9936;51.040;13.918;2023-03-01T15:59:02;3.40;99.90
19580;DHT22;9936;51.040;13.918;2023-03-01T16:02:48;3.40;99.90
19580;DHT22;9936;51.040;13.918;2023-03-01T16:06:34;3.40;99.90
19580;DHT22;9936;51.040;13.918;2023-03-01T16:10:22;3.30;99.90
19580;DHT22;9936;51.040;13.918;2023-03-01T16:14:09;3.30;99.90
19580;DHT22;9936;51.040;13.918;2023-03-01T16:17:55;3.30;99.90
19580;DHT22;9936;51.040;13.918;2023-03-01T16:21:41;3.40;99.90
19580;DHT22;9936;51.040;13.918;2023-03-01T16:25:28;3.80;99.90
19580;DHT22;9936;51.040;13.918;2023-03-01T16:29:13;4.00;99.90
19580;DHT22;9936;51.040;13.918;2023-03-01T16:33:01;4.30;99.90
19580;DHT22;9936;51.040;13.918;2023-03-01T16:36:47;4.30;99.90
19580;DHT22;9936;51.040;13.918;2023-03-01T16:40:38;4.50;99.90
19580;DHT22;9936;51.040;13.918;2023-03-01T16:44:23;4.40;99.90
19580;DHT22;9936;51.040;13.918;2023-03-01T16:48:09;4.40;99.90
19580;DHT22;9936;51.040;13.918;2023-03-01T16:51:55;4.30;99.90
19580;DHT22;9936;51.040;13.918;2023-03-01T16:55:40;4.20;99.90
19580;DHT22;9936;51.040;13.918;2023-03-01T16:59:30;4.20;99.90
19580;DHT22;9936;51.040;13.918;2023-03-01T17:03:16;4.10;99.90
19580;DHT22;9936;51.040;13.918;2023-03-01T17:07:02;4.00;99.90
19580;DHT22;9936;51.040;13.918;2023-03-01T17:10:48;3.90;99.90
19580;DHT22;9936;51.040;13.918;2023-03-01T17:14:34;3.80;99.90
19580;DHT22;9936;51.040;13.918;2023-03-01T17:18:20;3.90;99.90
19580;DHT22;9936;51.040;13.918;2023-03-01T17:22:07;3.80;99.90
19580;DHT22;9936;51.040;13.918;2023-03-01T17:25:52;3.70;99.90
19580;DHT22;9936;51.040;13.918;2023-03-01T17:29:40;3.60;99.90
19580;DHT22;9936;51.040;13.918;2023-03-01T17:33:26;3.60;99.90
19580;DHT22;9936;51.040;13.918;2023-03-01T17:37:12;3.50;99.90
19580;DHT22;9936;51.040;13.918;2023-03-01T17:40:59;3.50;99.90
19580;DHT22;9936;51.040;13.918;2023-03-01T17:44:45;3.40;99.90
19580;DHT22;9936;51.040;13.918;2023-03-01T17:48:30;3.40;99.90
19580;DHT22;9936;51.040;13.918;2023-03-01T17:52:16;3.30;99.80
19580;DHT22;9936;51.040;13.918;2023-03-01T17:56:04;3.30;99.60
19580;DHT22;9936;51.040;13.918;2023-03-01T17:59:51;3.20;99.60
19580;DHT22;9936;51.040;13.918;2023-03-01T18:03:37;3.20;99.50
19580;DHT22;9936;51.040;13.918;2023-03-01T18:07:27;3.10;99.90
19580;DHT22;9936;51.040;13.918;2023-03-01T18:11:13;2.90;99.90
19580;DHT22;9936;51.040;13.918;2023-03-01T18:14:59;2.90;99.90
19580;DHT22;9936;51.040;13.918;2023-03-01T18:18:45;2.90;99.90
19580;DHT22;9936;51.040;13.918;2023-03-01T18:22:32;2.80;99.90
19580;DHT22;9936;51.040;13.918;2023-03-01T18:26:18;2.70;99.90
19580;DHT22;9936;51.040;13.918;2023-03-01T18:30:18;2.70;99.90
19580;DHT22;9936;51.040;13.918;2023-03-01T18:34:33;2.60;99.90
19580;DHT22;9936;51.040;13.918;2023-03-01T18:38:38;2.60;99.90
19580;DHT22;9936;51.040;13.918;2023-03-01T18:42:42;2.60;99.90
19580;DHT22;9936;51.040;13.918;2023-03-01T18:46:31;2.50;99.90
19580;DHT22;9936;51.040;13.918;2023-03-01T18:50:17;2.40;99.90
19580;DHT22;9936;51.040;13.918;2023-03-01T18:54:04;2.40;99.90
19580;DHT22;9936;51.040;13.918;2023-03-01T18:58:01;2.30;99.90
19580;DHT22;9936;51.040;13.918;2023-03-01T19:01:52;2.30;99.90
19580;DHT22;9936;51.040;13.918;2023-03-01T19:05:40;2.30;99.90
19580;DHT22;9936;51.040;13.918;2023-03-01T19:09:33;2.20;99.90
19580;DHT22;9936;51.040;13.918;2023-03-01T19:13:39;2.10;99.90
19580;DHT22;9936;51.040;13.918;2023-03-01T19:17:26;2.10;99.90
19580;DHT22;9936;51.040;13.918;2023-03-01T19:21:21;2.00;99.90
19580;DHT22;9936;51.040;13.918;2023-03-01T19:25:10;2.00;99.90
19580;DHT22;9936;51.040;13.918;2023-03-01T19:28:58;2.00;99.90
19580;DHT22;9936;51.040;13.918;2023-03-01T19:32:43;1.90;99.90
19580;DHT22;9936;51.040;13.918;2023-03-01T19:36:33;1.90;99.90
19580;DHT22;9936;51.040;13.918;2023-03-01T19:40:20;1.90;99.90
19580;DHT22;9936;51.040;13.918;2023-03-01T19:44:08;1.80;99.90
19580;DHT22;9936;51.040;13.918;2023-03-01T19:47:54;1.90;99.90
19580;DHT22;9936;51.040;13.918;2023-03-01T19:51:40;1.60;99.90
19580;DHT22;9936;51.040;13.918;2023-03-01T19:55:25;1.80;99.90
19580;DHT22;9936;51.040;13.918;2023-03-01T19:59:11;1.70;99.90
19580;DHT22;9936;51.040;13.918;2023-03-01T20:02:57;1.60;99.90
19580;DHT22;9936;51.040;13.918;2023-03-01T20:06:45;1.60;99.90
19580;DHT22;9936;51.040;13.918;2023-03-01T20:10:32;1.60;99.90
19580;DHT22;9936;51.040;13.918;2023-03-01T20:14:18;1.60;99.90
19580;DHT22;9936;51.040;13.918;2023-03-01T20:18:06;1.50;99.90
19580;DHT22;9936;51.040;13.918;2023-03-01T20:21:52;1.50;99.90
19580;DHT22;9936;51.040;13.918;2023-03-01T20:25:40;1.50;99.90
19580;DHT22;9936;51.040;13.918;2023-03-01T20:29:25;1.50;99.90
19580;DHT22;9936;51.040;13.918;2023-03-01T20:33:11;1.60;99.90
19580;DHT22;9936;51.040;13.918;2023-03-01T20:36:57;1.50;99.90
19580;DHT22;9936;51.040;13.918;2023-03-01T20:40:42;1.50;99.90
19580;DHT22;9936;51.040;13.918;2023-03-01T20:44:28;1.40;99.90
19580;DHT22;9936;51.040;13.918;2023-03-01T20:48:14;1.30;99.90
19580;DHT22;9936;51.040;13.918;2023-03-01T20:51:59;1.40;99.90
19580;DHT22;9936;51.040;13.918;2023-03-01T20:55:45;1.30;99.90
19580;DHT22;9936;51.040;13.918;2023-03-01T20:59:31;1.30;99.90
19580;DHT22;9936;51.040;13.918;2023-03-01T21:03:19;1.20;99.90
19580;DHT22;9936;51.040;13.918;2023-03-01T21:07:04;1.20;99.90
19580;DHT22;9936;51.040;13.918;2023-03-01T21:10:55;1.20;99.90
19580;DHT22;9936;51.040;13.918;2023-03-01T21:14:41;1.10;99.90
19580;DHT22;9936;51.040;13.918;2023-03-01T21:18:28;1.10;99.90
19580;DHT22;9936;51.040;13.918;2023-03-01T21:22:16;1.00;99.90
19580;DHT22;9936;51.040;13.918;2023-03-01T21:29:55;0.90;99.90
19580;DHT22;9936;51.040;13.918;2023-03-01T21:33:53;0.90;99.90
19580;DHT22;9936;51.040;13.918;2023-03-01T21:37:39;0.80;99.90
19580;DHT22;9936;51.040;13.918;2023-03-01T21:41:27;0.80;99.90
19580;DHT22;9936;51.040;13.918;2023-03-01T21:45:13;0.80;99.90
19580;DHT22;9936;51.040;13.918;2023-03-01T21:48:59;0.80;99.90
19580;DHT22;9936;51.040;13.918;2023-03-01T21:52:44;0.60;99.90
19580;DHT22;9936;51.040;13.918;2023-03-01T21:56:31;0.70;99.90
19580;DHT22;9936;51.040;13.918;2023-03-01T22:00:19;0.60;99.90
19580;DHT22;9936;51.040;13.918;2023-03-01T22:04:07;0.60;99.90
19580;DHT22;9936;51.040;13.918;2023-03-01T22:07:53;0.70;99.90
19580;DHT22;9936;51.040;13.918;2023-03-01T22:11:42;0.60;99.90
19580;DHT22;9936;51.040;13.918;2023-03-01T22:15:29;0.60;99.90
19580;DHT22;9936;51.040;13.918;2023-03-01T22:19:16;0.50;99.90
19580;DHT22;9936;51.040;13.918;2023-03-01T22:23:02;0.50;99.90
19580;DHT22;9936;51.040;13.918;2023-03-01T22:26:50;0.50;99.90
19580;DHT22;9936;51.040;13.918;2023-03-01T22:30:35;0.50;99.90
19580;DHT22;9936;51.040;13.918;2023-03-01T22:34:21;0.50;99.90
19580;DHT22;9936;51.040;13.918;2023-03-01T22:38:07;0.40;99.90
19580;DHT22;9936;51.040;13.918;2023-03-01T22:41:53;0.50;99.90
19580;DHT22;9936;51.040;13.918;2023-03-01T22:45:39;0.40;99.90
19580;DHT22;9936;51.040;13.918;2023-03-01T22:49:25;0.40;99.90
19580;DHT22;9936;51.040;13.918;2023-03-01T22:53:10;0.40;99.90
19580;DHT22;9936;51.040;13.918;2023-03-01T22:56:56;0.30;99.90
19580;DHT22;9936;51.040;13.918;2023-03-01T23:00:45;0.30;99.90
19580;DHT22;9936;51.040;13.918;2023-03-01T23:04:31;0.30;99.90
19580;DHT22;9936;51.040;13.918;2023-03-01T23:08:16;0.30;99.90
19580;DHT22;9936;51.040;13.918;2023-03-01T23:12:03;0.30;99.90
19580;DHT22;9936;51.040;13.918;2023-03-01T23:15:57;0.20;99.90
19580;DHT22;9936;51.040;13.918;2023-03-01T23:19:43;0.20;99.90
19580;DHT22;9936;51.040;13.918;2023-03-01T23:23:28;0.20;99.90
19580;DHT22;9936;51.040;13.918;2023-03-01T23:27:15;0.20;99.90
19580;DHT22;9936;51.040;13.918;2023-03-01T23:31:05;0.10;99.90
19580;DHT22;9936;51.040;13.918;2023-03-01T23:34:51;0.10;99.90
19580;DHT22;9936;51.040;13.918;2023-03-01T23:38:37;0.00;99.90
19580;DHT22;9936;51.040;13.918;2023-03-01T23:42:22;0.00;99.90
19580;DHT22;9936;51.040;13.918;2023-03-01T23:46:08;0.00;99.90
19580;DHT22;9936;51.040;13.918;2023-03-01T23:49:58;-0.10;99.90
19580;DHT22;9936;51.040;13.918;2023-03-01T23:53:48;-0.10;99.90
19580;DHT22;9936;51.040;13.918;2023-03-01T23:57:40;0.00;99.90
